createdAt,value
2023-08-12T00:04:58.546Z,101277.53
2023-08-12T00:10:04.585Z,101282.87
2023-08-12T00:15:09.571Z,101285.71
2023-08-12T00:20:13.705Z,101284.45
2023-08-12T00:25:17.122Z,101281.19
2023-08-12T00:30:20.110Z,101282.52
2023-08-12T00:35:23.191Z,101283.30
2023-08-12T00:40:27.737Z,101283.32
2023-08-12T00:45:30.719Z,101277.55
2023-08-12T00:50:33.579Z,101276.69
2023-08-12T00:55:36.504Z,101276.15
2023-08-12T01:00:39.468Z,101270.95
2023-08-12T01:05:42.926Z,101269.59
2023-08-12T01:10:52.735Z,101270.27
2023-08-12T01:15:57.153Z,101271.21
2023-08-12T01:21:00.322Z,101269.86
2023-08-12T01:26:03.286Z,101265.08
2023-08-12T01:31:44.498Z,101273.01
2023-08-12T01:36:50.374Z,101268.90
2023-08-12T01:41:53.342Z,101271.79
2023-08-12T01:46:56.294Z,101267.56
2023-08-12T01:51:59.201Z,101263.30
2023-08-12T01:57:06.801Z,101266.44
2023-08-12T02:02:09.776Z,101273.33
2023-08-12T02:07:13.075Z,101274.71
2023-08-12T02:12:16.497Z,101271.83
2023-08-12T02:17:19.338Z,101271.42
2023-08-12T02:22:23.563Z,101272.95
2023-08-12T02:27:26.443Z,101270.65
2023-08-12T02:32:29.438Z,101270.87
2023-08-12T02:37:32.281Z,101272.79
2023-08-12T02:42:35.193Z,101275.55
2023-08-12T02:47:38.363Z,101274.61
2023-08-12T02:52:41.242Z,101278.80
2023-08-12T02:57:44.218Z,101284.08
2023-08-12T03:02:47.289Z,101295.66
2023-08-12T03:07:52.822Z,101296.33
2023-08-12T03:12:55.951Z,101302.48
2023-08-12T03:17:58.884Z,101307.98
2023-08-12T03:23:02.041Z,101311.64
2023-08-12T03:28:05.250Z,101313.93
2023-08-12T03:33:08.183Z,101312.36
2023-08-12T03:38:12.096Z,101316.26
2023-08-12T03:43:15.557Z,101318.45
2023-08-12T03:48:18.460Z,101320.02
2023-08-12T03:53:21.389Z,101317.97
2023-08-12T03:58:24.271Z,101317.41
2023-08-12T04:03:27.399Z,101318.65
2023-08-12T04:08:30.524Z,101323.30
2023-08-12T04:13:33.537Z,101327.16
2023-08-12T04:18:36.592Z,101320.21
2023-08-12T04:23:39.662Z,101321.23
2023-08-12T04:28:42.520Z,101318.60
2023-08-12T04:33:45.369Z,101311.76
2023-08-12T04:38:48.382Z,101314.89
2023-08-12T04:43:51.589Z,101320.58
2023-08-12T04:48:54.436Z,101319.27
2023-08-12T04:53:57.442Z,101322.22
2023-08-12T04:59:00.256Z,101322.34
2023-08-12T05:04:03.308Z,101316.75
2023-08-12T05:09:06.974Z,101313.98
2023-08-12T05:14:10.346Z,101309.79
2023-08-12T05:19:13.297Z,101307.87
2023-08-12T05:24:16.465Z,101301.13
2023-08-12T05:29:19.324Z,101298.60
2023-08-12T05:34:22.183Z,101297.36
2023-08-12T05:39:25.239Z,101297.58
2023-08-12T05:44:28.152Z,101295.35
2023-08-12T05:49:30.976Z,101296.27
2023-08-12T05:54:33.925Z,101291.48
2023-08-12T05:59:36.871Z,101293.09
2023-08-12T06:04:39.792Z,101289.29
2023-08-12T06:09:42.734Z,101290.07
2023-08-12T06:14:45.630Z,101286.06
2023-08-12T06:19:48.632Z,101284.25
2023-08-12T06:24:51.696Z,101287.06
2023-08-12T06:29:54.608Z,101290.59
2023-08-12T06:34:58.252Z,101291.68
2023-08-12T06:40:01.297Z,101288.55
2023-08-12T06:45:05.323Z,101289.31
2023-08-12T06:50:09.453Z,101290.09
2023-08-12T06:55:12.769Z,101294.71
2023-08-12T07:00:16.346Z,101295.73
2023-08-12T07:05:20.014Z,101292.13
2023-08-12T07:10:24.217Z,101286.43
2023-08-12T07:15:30.673Z,101283.35
2023-08-12T07:20:34.248Z,101284.09
2023-08-12T07:25:37.608Z,101287.32
2023-08-12T07:30:40.625Z,101292.41
2023-08-12T07:35:43.846Z,101284.31
2023-08-12T07:40:51.038Z,101278.67
2023-08-12T07:46:07.716Z,101279.13
2023-08-12T07:51:13.894Z,101275.79
2023-08-12T07:56:16.994Z,101275.54
2023-08-12T08:01:21.766Z,101268.83
2023-08-12T08:06:30.121Z,101260.17
2023-08-12T08:11:35.963Z,101258.56
2023-08-12T08:16:43.055Z,101256.85
2023-08-12T08:21:46.680Z,101255.35
2023-08-12T08:26:50.505Z,101246.45
2023-08-12T08:31:53.491Z,101244.20
2023-08-12T08:36:56.735Z,101239.19
2023-08-12T08:41:59.893Z,101241.06
2023-08-12T08:47:04.407Z,101241.59
2023-08-12T08:52:07.888Z,101237.06
2023-08-12T08:57:14.347Z,101237.02
2023-08-12T09:02:20.804Z,101233.48
2023-08-12T09:07:24.025Z,101230.51
2023-08-12T09:12:27.138Z,101228.20
2023-08-12T09:17:30.565Z,101216.42
2023-08-12T09:22:33.559Z,101212.80
2023-08-12T09:27:37.962Z,101212.20
2023-08-12T09:32:41.313Z,101208.73
2023-08-12T09:37:44.278Z,101211.53
2023-08-12T09:42:47.797Z,101208.30
2023-08-12T09:47:55.437Z,101203.48
2023-08-12T09:52:58.632Z,101204.02
2023-08-12T09:58:02.799Z,101204.77
2023-08-12T10:03:06.677Z,101202.94
2023-08-12T10:08:11.079Z,101194.18
2023-08-12T10:13:14.040Z,101186.54
2023-08-12T10:18:17.172Z,101182.69
2023-08-12T10:23:20.113Z,101177.03
2023-08-12T10:28:23.268Z,101165.23
2023-08-12T10:33:28.307Z,101164.00
2023-08-12T10:38:34.801Z,101160.98
2023-08-12T10:43:56.569Z,101161.40
2023-08-12T10:49:06.893Z,101156.88
2023-08-12T10:54:19.474Z,101153.86
2023-08-12T10:59:47.423Z,101147.70
2023-08-12T11:04:58.275Z,101135.95
2023-08-12T11:10:27.798Z,101134.55
2023-08-12T11:15:36.204Z,101132.20
2023-08-12T11:20:39.614Z,101128.21
2023-08-12T11:25:45.218Z,101122.63
2023-08-12T11:30:48.201Z,101118.88
2023-08-12T11:35:51.432Z,101115.02
2023-08-12T11:40:54.332Z,101112.08
2023-08-12T11:45:57.650Z,101116.26
2023-08-12T11:51:00.595Z,101111.50
2023-08-12T11:56:04.637Z,101103.54
2023-08-12T12:01:07.570Z,101100.77
2023-08-12T12:06:10.518Z,101096.78
2023-08-12T12:11:14.882Z,101086.54
2023-08-12T12:16:17.810Z,101085.45
2023-08-12T12:21:24.243Z,101084.99
2023-08-12T12:26:27.560Z,101070.20
2023-08-12T12:31:30.621Z,101060.75
2023-08-12T12:36:37.465Z,101066.05
2023-08-12T12:41:40.555Z,101061.45
2023-08-12T12:46:44.830Z,101055.48
2023-08-12T12:51:50.529Z,101051.02
2023-08-12T12:56:58.085Z,101044.09
2023-08-12T13:02:01.860Z,101042.95
2023-08-12T13:07:04.934Z,101040.48
2023-08-12T13:12:08.354Z,101031.50
2023-08-12T13:17:14.375Z,101032.02
2023-08-12T13:22:17.585Z,101026.34
2023-08-12T13:27:26.101Z,101017.90
2023-08-12T13:32:29.563Z,101015.98
2023-08-12T13:37:34.944Z,101020.27
2023-08-12T13:42:39.791Z,101020.37
2023-08-12T13:47:44.230Z,101013.18
2023-08-12T13:52:48.437Z,101005.01
2023-08-12T13:57:54.565Z,101002.90
2023-08-12T14:02:57.822Z,100997.64
2023-08-12T14:08:01.504Z,100992.23
2023-08-12T14:13:05.411Z,100988.05
2023-08-12T14:18:09.448Z,100979.58
2023-08-12T14:23:12.512Z,100974.33
2023-08-12T14:28:19.047Z,100977.34
2023-08-12T14:33:24.395Z,100975.27
2023-08-12T14:38:27.315Z,100964.30
2023-08-12T14:43:30.189Z,100957.75
2023-08-12T14:48:33.267Z,100951.83
2023-08-12T14:53:36.836Z,100949.65
2023-08-12T14:58:39.760Z,100939.73
2023-08-12T15:03:43.072Z,100938.61
2023-08-12T15:08:46.223Z,100939.34
2023-08-12T15:13:49.288Z,100933.93
2023-08-12T15:18:52.204Z,100931.16
2023-08-12T15:23:55.180Z,100926.37
2023-08-12T15:28:58.036Z,100919.66
2023-08-12T15:34:01.064Z,100916.56
2023-08-12T15:39:05.282Z,100911.69
2023-08-12T15:44:12.393Z,100906.91
2023-08-12T15:49:16.018Z,100908.81
2023-08-12T15:54:19.503Z,100906.96
2023-08-12T15:59:27.399Z,100901.34
2023-08-12T16:04:30.770Z,100901.98
2023-08-12T16:09:33.783Z,100894.50
2023-08-12T16:14:38.530Z,100892.52
2023-08-12T16:19:46.382Z,100892.42
2023-08-12T16:24:49.810Z,100891.17
2023-08-12T16:30:10.092Z,100887.00
2023-08-12T16:35:13.728Z,100885.91
2023-08-12T16:40:16.769Z,100885.89
2023-08-12T16:45:19.819Z,100891.48
2023-08-12T16:50:22.747Z,100881.17
2023-08-12T16:55:25.690Z,100882.55
2023-08-12T17:00:28.797Z,100878.03
2023-08-12T17:05:34.864Z,100871.46
2023-08-12T17:10:42.374Z,100872.33
2023-08-12T17:15:47.332Z,100877.23
2023-08-12T17:20:50.487Z,100878.01
2023-08-12T17:25:54.470Z,100878.92
2023-08-12T17:30:57.831Z,100871.98
2023-08-12T17:36:00.837Z,100874.25
2023-08-12T17:41:04.007Z,100877.18
2023-08-12T17:46:10.856Z,100874.09
2023-08-12T17:51:16.172Z,100874.98
2023-08-12T17:56:19.518Z,100874.27
2023-08-12T18:01:23.220Z,100872.48
2023-08-12T18:06:26.328Z,100875.29
2023-08-12T18:11:29.344Z,100873.54
2023-08-12T18:16:34.624Z,100875.47
2023-08-12T18:21:37.881Z,100876.38
2023-08-12T18:26:40.867Z,100876.41
2023-08-12T18:31:43.813Z,100876.23
2023-08-12T18:36:46.738Z,100880.02
2023-08-12T18:41:50.443Z,100878.90
2023-08-12T18:46:53.308Z,100881.41
2023-08-12T18:51:56.314Z,100885.64
2023-08-12T18:56:59.137Z,100889.90
2023-08-12T19:02:02.027Z,100893.61
2023-08-12T19:07:05.524Z,100892.77
2023-08-12T19:12:10.632Z,100892.84
2023-08-12T19:17:13.934Z,100897.54
2023-08-12T19:22:16.860Z,100897.09
2023-08-12T19:27:19.880Z,100893.90
2023-08-12T19:32:22.853Z,100886.52
2023-08-12T19:37:26.432Z,100883.85
2023-08-12T19:42:29.794Z,100885.19
2023-08-12T19:47:40.732Z,100885.30
2023-08-12T19:52:44.285Z,100889.06
2023-08-12T19:57:49.471Z,100892.52
2023-08-12T20:02:53.845Z,100892.98
2023-08-12T20:07:58.254Z,100891.70
2023-08-12T20:13:03.632Z,100892.40
2023-08-12T20:18:06.754Z,100894.61
2023-08-12T20:23:12.025Z,100896.98
2023-08-12T20:28:20.014Z,100895.17
2023-08-12T20:33:23.502Z,100891.54
2023-08-12T20:38:26.636Z,100892.35
2023-08-12T20:43:29.515Z,100890.34
2023-08-12T20:48:33.208Z,100894.42
2023-08-12T20:53:36.036Z,100893.75
2023-08-12T20:58:38.873Z,100888.33
2023-08-12T21:03:41.932Z,100890.50
2023-08-12T21:08:45.027Z,100891.40
2023-08-12T21:13:47.945Z,100890.25
2023-08-12T21:18:50.789Z,100885.66
2023-08-12T21:23:53.698Z,100879.64
2023-08-12T21:28:56.592Z,100878.35
2023-08-12T21:33:59.557Z,100872.10
2023-08-12T21:39:05.406Z,100871.26
2023-08-12T21:44:08.374Z,100861.78
2023-08-12T21:49:11.513Z,100860.19
2023-08-12T21:54:14.668Z,100858.02
2023-08-12T21:59:18.132Z,100858.41
2023-08-12T22:04:21.158Z,100864.96
2023-08-12T22:09:30.300Z,100868.24
2023-08-12T22:14:33.708Z,100871.67
2023-08-12T22:19:36.688Z,100867.31
2023-08-12T22:24:39.890Z,100863.94
2023-08-12T22:29:42.850Z,100864.40
2023-08-12T22:34:45.840Z,100863.50
2023-08-12T22:39:48.742Z,100864.27
2023-08-12T22:44:51.665Z,100860.55
2023-08-12T22:49:54.851Z,100855.37
2023-08-12T22:54:58.924Z,100847.54
2023-08-12T23:00:01.965Z,100843.92
2023-08-12T23:05:05.396Z,100839.16
2023-08-12T23:10:09.753Z,100832.70
2023-08-12T23:15:12.777Z,100822.42
2023-08-12T23:20:15.703Z,100820.98
2023-08-12T23:25:18.849Z,100821.25
2023-08-12T23:30:22.190Z,100816.88
2023-08-12T23:35:25.168Z,100808.68
2023-08-12T23:40:28.282Z,100802.40
2023-08-12T23:45:31.495Z,100800.65
2023-08-12T23:50:34.504Z,100805.38
2023-08-12T23:55:37.462Z,100806.64
